sensor_id;sensor_type;location;lat;lon;timestamp;temperature;humidity
34574;DHT22;20809;49.594;8.734;2023-04-06T00:01:31;-0.20;99.90
34574;DHT22;20809;49.594;8.734;2023-04-06T00:04:32;-0.20;99.90
34574;DHT22;20809;49.594;8.734;2023-04-06T00:07:34;-0.20;99.90
34574;DHT22;20809;49.594;8.734;2023-04-06T00:10:40;-0.30;99.90
34574;DHT22;20809;49.594;8.734;2023-04-06T00:13:44;-0.30;99.90
34574;DHT22;20809;49.594;8.734;2023-04-06T00:16:46;-0.30;99.90
34574;DHT22;20809;49.594;8.734;2023-04-06T00:19:47;-0.10;99.90
34574;DHT22;20809;49.594;8.734;2023-04-06T00:22:50;0.00;99.90
34574;DHT22;20809;49.594;8.734;2023-04-06T00:25:56;0.00;99.90
34574;DHT22;20809;49.594;8.734;2023-04-06T00:28:59;0.20;99.90
34574;DHT22;20809;49.594;8.734;2023-04-06T00:32:01;0.30;99.90
34574;DHT22;20809;49.594;8.734;2023-04-06T00:35:03;0.50;99.90
34574;DHT22;20809;49.594;8.734;2023-04-06T00:38:05;0.50;99.90
34574;DHT22;20809;49.594;8.734;2023-04-06T00:41:07;0.50;99.90
34574;DHT22;20809;49.594;8.734;2023-04-06T00:44:08;0.50;99.90
34574;DHT22;20809;49.594;8.734;2023-04-06T00:47:10;0.60;99.90
34574;DHT22;20809;49.594;8.734;2023-04-06T00:50:11;0.60;99.90
34574;DHT22;20809;49.594;8.734;2023-04-06T00:53:12;0.50;99.90
34574;DHT22;20809;49.594;8.734;2023-04-06T00:59:12;0.30;99.90
34574;DHT22;20809;49.594;8.734;2023-04-06T01:02:13;0.30;99.90
34574;DHT22;20809;49.594;8.734;2023-04-06T01:05:16;0.30;99.90
34574;DHT22;20809;49.594;8.734;2023-04-06T01:08:17;0.30;99.90
34574;DHT22;20809;49.594;8.734;2023-04-06T01:11:19;0.10;99.90
34574;DHT22;20809;49.594;8.734;2023-04-06T01:14:22;0.00;99.90
34574;DHT22;20809;49.594;8.734;2023-04-06T01:17:24;0.00;99.90
34574;DHT22;20809;49.594;8.734;2023-04-06T01:20:25;0.00;99.90
34574;DHT22;20809;49.594;8.734;2023-04-06T01:23:27;-0.10;99.90
34574;DHT22;20809;49.594;8.734;2023-04-06T01:26:29;-0.10;99.90
34574;DHT22;20809;49.594;8.734;2023-04-06T01:29:30;-0.20;99.90
34574;DHT22;20809;49.594;8.734;2023-04-06T01:32:32;-0.20;99.90
34574;DHT22;20809;49.594;8.734;2023-04-06T01:35:33;-0.20;99.90
34574;DHT22;20809;49.594;8.734;2023-04-06T01:38:36;-0.30;99.90
34574;DHT22;20809;49.594;8.734;2023-04-06T01:41:37;-0.40;99.90
34574;DHT22;20809;49.594;8.734;2023-04-06T01:44:39;-0.50;99.90
34574;DHT22;20809;49.594;8.734;2023-04-06T01:47:44;-0.50;99.90
34574;DHT22;20809;49.594;8.734;2023-04-06T01:50:49;-0.60;99.90
34574;DHT22;20809;49.594;8.734;2023-04-06T01:53:56;-0.60;99.90
34574;DHT22;20809;49.594;8.734;2023-04-06T01:56:58;-0.60;99.90
34574;DHT22;20809;49.594;8.734;2023-04-06T02:00:01;-0.60;99.90
34574;DHT22;20809;49.594;8.734;2023-04-06T02:03:05;-0.50;99.90
34574;DHT22;20809;49.594;8.734;2023-04-06T02:06:11;-0.50;99.90
34574;DHT22;20809;49.594;8.734;2023-04-06T02:09:13;-0.60;99.90
34574;DHT22;20809;49.594;8.734;2023-04-06T02:12:15;-0.60;99.90
34574;DHT22;20809;49.594;8.734;2023-04-06T02:15:17;-0.50;99.90
34574;DHT22;20809;49.594;8.734;2023-04-06T02:18:19;-0.60;99.90
34574;DHT22;20809;49.594;8.734;2023-04-06T02:21:21;-0.70;99.90
34574;DHT22;20809;49.594;8.734;2023-04-06T02:24:23;-0.70;99.90
34574;DHT22;20809;49.594;8.734;2023-04-06T02:27:27;-0.60;99.90
34574;DHT22;20809;49.594;8.734;2023-04-06T02:30:29;-0.70;99.90
34574;DHT22;20809;49.594;8.734;2023-04-06T02:33:31;-0.70;99.90
34574;DHT22;20809;49.594;8.734;2023-04-06T02:36:33;-0.80;99.90
34574;DHT22;20809;49.594;8.734;2023-04-06T02:39:35;-0.90;99.90
34574;DHT22;20809;49.594;8.734;2023-04-06T02:42:37;-0.90;99.90
34574;DHT22;20809;49.594;8.734;2023-04-06T02:45:39;-0.90;99.90
34574;DHT22;20809;49.594;8.734;2023-04-06T02:48:44;-1.00;99.90
34574;DHT22;20809;49.594;8.734;2023-04-06T02:51:46;-1.00;99.90
34574;DHT22;20809;49.594;8.734;2023-04-06T02:54:48;-1.00;99.90
34574;DHT22;20809;49.594;8.734;2023-04-06T02:57:52;-1.00;99.90
34574;DHT22;20809;49.594;8.734;2023-04-06T03:00:58;-1.10;99.90
34574;DHT22;20809;49.594;8.734;2023-04-06T03:04:01;-1.10;99.90
34574;DHT22;20809;49.594;8.734;2023-04-06T03:07:03;-1.20;99.90
34574;DHT22;20809;49.594;8.734;2023-04-06T03:10:06;-1.20;99.90
34574;DHT22;20809;49.594;8.734;2023-04-06T03:13:08;-1.30;99.90
34574;DHT22;20809;49.594;8.734;2023-04-06T03:16:10;-1.30;99.90
34574;DHT22;20809;49.594;8.734;2023-04-06T03:19:13;-1.20;99.90
34574;DHT22;20809;49.594;8.734;2023-04-06T03:22:15;-1.30;99.90
34574;DHT22;20809;49.594;8.734;2023-04-06T03:25:17;-1.30;99.90
34574;DHT22;20809;49.594;8.734;2023-04-06T03:28:19;-1.40;99.90
34574;DHT22;20809;49.594;8.734;2023-04-06T03:31:22;-1.40;99.90
34574;DHT22;20809;49.594;8.734;2023-04-06T03:34:24;-1.40;99.90
34574;DHT22;20809;49.594;8.734;2023-04-06T03:37:27;-1.40;99.90
34574;DHT22;20809;49.594;8.734;2023-04-06T03:40:32;-1.50;99.90
34574;DHT22;20809;49.594;8.734;2023-04-06T03:43:35;-1.50;99.90
34574;DHT22;20809;49.594;8.734;2023-04-06T03:46:37;-1.50;99.90
34574;DHT22;20809;49.594;8.734;2023-04-06T03:49:38;-1.50;99.90
34574;DHT22;20809;49.594;8.734;2023-04-06T03:52:40;-1.60;99.90
34574;DHT22;20809;49.594;8.734;2023-04-06T03:55:43;-1.60;99.90
34574;DHT22;20809;49.594;8.734;2023-04-06T03:58:47;-1.60;99.90
34574;DHT22;20809;49.594;8.734;2023-04-06T04:01:51;-1.70;99.90
34574;DHT22;20809;49.594;8.734;2023-04-06T04:04:52;-1.70;99.90
34574;DHT22;20809;49.594;8.734;2023-04-06T04:07:53;-1.70;99.90
34574;DHT22;20809;49.594;8.734;2023-04-06T04:10:57;-1.70;99.90
34574;DHT22;20809;49.594;8.734;2023-04-06T04:13:59;-1.70;99.90
34574;DHT22;20809;49.594;8.734;2023-04-06T04:17:02;-1.70;99.90
34574;DHT22;20809;49.594;8.734;2023-04-06T04:20:04;-1.70;99.90
34574;DHT22;20809;49.594;8.734;2023-04-06T04:23:07;-1.70;99.90
34574;DHT22;20809;49.594;8.734;2023-04-06T04:26:09;-1.70;99.90
34574;DHT22;20809;49.594;8.734;2023-04-06T04:29:11;-1.70;99.90
34574;DHT22;20809;49.594;8.734;2023-04-06T04:32:13;-1.80;99.90
34574;DHT22;20809;49.594;8.734;2023-04-06T04:35:19;-1.80;99.90
34574;DHT22;20809;49.594;8.734;2023-04-06T04:38:21;-1.80;99.90
34574;DHT22;20809;49.594;8.734;2023-04-06T04:41:22;-1.80;99.90
34574;DHT22;20809;49.594;8.734;2023-04-06T04:44:23;-1.80;99.90
34574;DHT22;20809;49.594;8.734;2023-04-06T04:47:29;-1.90;99.90
34574;DHT22;20809;49.594;8.734;2023-04-06T04:50:33;-1.90;99.90
34574;DHT22;20809;49.594;8.734;2023-04-06T04:53:36;-1.90;99.90
34574;DHT22;20809;49.594;8.734;2023-04-06T04:56:41;-1.90;99.90
34574;DHT22;20809;49.594;8.734;2023-04-06T04:59:45;-1.80;99.90
34574;DHT22;20809;49.594;8.734;2023-04-06T05:02:49;-1.80;99.90
34574;DHT22;20809;49.594;8.734;2023-04-06T05:05:52;-1.70;99.90
34574;DHT22;20809;49.594;8.734;2023-04-06T05:08:58;-1.70;99.90
34574;DHT22;20809;49.594;8.734;2023-04-06T05:12:03;-1.60;99.90
34574;DHT22;20809;49.594;8.734;2023-04-06T05:15:05;-1.60;99.90
34574;DHT22;20809;49.594;8.734;2023-04-06T05:18:10;-1.50;99.90
34574;DHT22;20809;49.594;8.734;2023-04-06T05:21:15;-1.40;99.90
34574;DHT22;20809;49.594;8.734;2023-04-06T05:24:18;-1.30;99.90
34574;DHT22;20809;49.594;8.734;2023-04-06T05:27:23;-1.10;99.90
34574;DHT22;20809;49.594;8.734;2023-04-06T05:30:26;-1.00;99.90
34574;DHT22;20809;49.594;8.734;2023-04-06T05:33:30;-1.00;99.90
34574;DHT22;20809;49.594;8.734;2023-04-06T05:36:35;-0.90;99.90
34574;DHT22;20809;49.594;8.734;2023-04-06T05:39:43;-0.80;99.90
34574;DHT22;20809;49.594;8.734;2023-04-06T05:42:46;-0.70;99.90
34574;DHT22;20809;49.594;8.734;2023-04-06T05:45:52;-0.50;99.90
34574;DHT22;20809;49.594;8.734;2023-04-06T05:48:56;-0.30;99.90
34574;DHT22;20809;49.594;8.734;2023-04-06T05:52:01;-0.20;99.90
34574;DHT22;20809;49.594;8.734;2023-04-06T05:55:04;-0.20;99.90
34574;DHT22;20809;49.594;8.734;2023-04-06T05:58:07;-0.10;99.90
34574;DHT22;20809;49.594;8.734;2023-04-06T06:01:14;0.00;99.90
34574;DHT22;20809;49.594;8.734;2023-04-06T06:04:18;0.10;99.90
34574;DHT22;20809;49.594;8.734;2023-04-06T06:07:22;0.20;99.90
34574;DHT22;20809;49.594;8.734;2023-04-06T06:10:29;0.30;99.90
34574;DHT22;20809;49.594;8.734;2023-04-06T06:13:33;0.70;99.90
34574;DHT22;20809;49.594;8.734;2023-04-06T06:16:40;2.00;99.90
34574;DHT22;20809;49.594;8.734;2023-04-06T06:19:47;3.70;99.90
34574;DHT22;20809;49.594;8.734;2023-04-06T06:22:50;5.00;99.90
34574;DHT22;20809;49.594;8.734;2023-04-06T06:26:01;6.10;99.90
34574;DHT22;20809;49.594;8.734;2023-04-06T06:29:06;6.70;99.90
34574;DHT22;20809;49.594;8.734;2023-04-06T06:32:08;7.50;99.90
34574;DHT22;20809;49.594;8.734;2023-04-06T06:35:14;8.00;99.90
34574;DHT22;20809;49.594;8.734;2023-04-06T06:38:23;8.30;99.90
34574;DHT22;20809;49.594;8.734;2023-04-06T06:41:28;8.60;99.90
34574;DHT22;20809;49.594;8.734;2023-04-06T06:44:32;9.10;99.90
34574;DHT22;20809;49.594;8.734;2023-04-06T06:47:37;8.20;99.90
34574;DHT22;20809;49.594;8.734;2023-04-06T06:50:42;9.20;99.90
34574;DHT22;20809;49.594;8.734;2023-04-06T06:53:47;10.30;99.90
34574;DHT22;20809;49.594;8.734;2023-04-06T06:56:50;11.20;99.90
34574;DHT22;20809;49.594;8.734;2023-04-06T06:59:54;11.80;98.50
34574;DHT22;20809;49.594;8.734;2023-04-06T07:02:56;11.90;95.90
34574;DHT22;20809;49.594;8.734;2023-04-06T07:06:03;11.50;95.00
34574;DHT22;20809;49.594;8.734;2023-04-06T07:09:08;11.70;94.90
34574;DHT22;20809;49.594;8.734;2023-04-06T07:12:12;12.00;94.90
34574;DHT22;20809;49.594;8.734;2023-04-06T07:15:23;12.20;93.90
34574;DHT22;20809;49.594;8.734;2023-04-06T07:18:28;12.40;92.80
34574;DHT22;20809;49.594;8.734;2023-04-06T07:21:31;12.50;92.20
34574;DHT22;20809;49.594;8.734;2023-04-06T07:24:36;12.30;92.00
34574;DHT22;20809;49.594;8.734;2023-04-06T07:27:40;11.70;92.10
34574;DHT22;20809;49.594;8.734;2023-04-06T07:30:46;10.60;93.10
34574;DHT22;20809;49.594;8.734;2023-04-06T07:33:50;9.90;94.80
34574;DHT22;20809;49.594;8.734;2023-04-06T07:36:54;9.20;96.70
34574;DHT22;20809;49.594;8.734;2023-04-06T07:39:59;8.50;99.90
34574;DHT22;20809;49.594;8.734;2023-04-06T07:43:04;8.10;99.90
34574;DHT22;20809;49.594;8.734;2023-04-06T07:46:08;7.90;99.90
34574;DHT22;20809;49.594;8.734;2023-04-06T07:49:17;7.90;99.90
34574;DHT22;20809;49.594;8.734;2023-04-06T07:52:24;7.90;99.90
34574;DHT22;20809;49.594;8.734;2023-04-06T07:55:36;7.90;99.90
34574;DHT22;20809;49.594;8.734;2023-04-06T07:58:44;7.90;99.90
34574;DHT22;20809;49.594;8.734;2023-04-06T08:01:49;8.20;99.90
34574;DHT22;20809;49.594;8.734;2023-04-06T08:04:58;8.50;99.90
34574;DHT22;20809;49.594;8.734;2023-04-06T08:08:10;8.80;99.90
34574;DHT22;20809;49.594;8.734;2023-04-06T08:11:17;9.00;99.90
34574;DHT22;20809;49.594;8.734;2023-04-06T08:14:38;9.30;99.90
34574;DHT22;20809;49.594;8.734;2023-04-06T08:17:51;9.50;99.90
34574;DHT22;20809;49.594;8.734;2023-04-06T08:21:03;9.80;99.90
34574;DHT22;20809;49.594;8.734;2023-04-06T08:24:14;10.00;99.90
34574;DHT22;20809;49.594;8.734;2023-04-06T08:27:25;10.20;99.90
34574;DHT22;20809;49.594;8.734;2023-04-06T08:30:35;10.40;99.90
34574;DHT22;20809;49.594;8.734;2023-04-06T08:33:41;10.60;99.90
34574;DHT22;20809;49.594;8.734;2023-04-06T08:36:54;10.70;99.60
34574;DHT22;20809;49.594;8.734;2023-04-06T08:40:03;10.90;98.40
34574;DHT22;20809;49.594;8.734;2023-04-06T08:43:19;11.00;98.60
34574;DHT22;20809;49.594;8.734;2023-04-06T08:46:34;11.10;96.60
34574;DHT22;20809;49.594;8.734;2023-04-06T08:49:47;11.00;94.90
34574;DHT22;20809;49.594;8.734;2023-04-06T08:52:58;11.10;95.60
34574;DHT22;20809;49.594;8.734;2023-04-06T08:56:10;11.20;94.30
34574;DHT22;20809;49.594;8.734;2023-04-06T08:59:27;11.10;93.80
34574;DHT22;20809;49.594;8.734;2023-04-06T09:02:44;11.10;93.40
34574;DHT22;20809;49.594;8.734;2023-04-06T09:05:59;11.10;92.90
34574;DHT22;20809;49.594;8.734;2023-04-06T09:09:13;11.20;92.50
34574;DHT22;20809;49.594;8.734;2023-04-06T09:12:37;11.30;93.00
34574;DHT22;20809;49.594;8.734;2023-04-06T09:15:46;11.30;93.00
34574;DHT22;20809;49.594;8.734;2023-04-06T09:19:08;11.30;92.60
34574;DHT22;20809;49.594;8.734;2023-04-06T09:22:21;11.40;93.00
34574;DHT22;20809;49.594;8.734;2023-04-06T09:25:33;11.60;92.30
34574;DHT22;20809;49.594;8.734;2023-04-06T09:28:45;11.70;91.70
34574;DHT22;20809;49.594;8.734;2023-04-06T09:32:10;11.90;90.80
34574;DHT22;20809;49.594;8.734;2023-04-06T09:35:20;12.00;89.80
34574;DHT22;20809;49.594;8.734;2023-04-06T09:38:32;12.10;90.40
34574;DHT22;20809;49.594;8.734;2023-04-06T09:41:42;12.20;90.00
34574;DHT22;20809;49.594;8.734;2023-04-06T09:45:06;12.20;88.10
34574;DHT22;20809;49.594;8.734;2023-04-06T09:48:16;12.20;90.40
34574;DHT22;20809;49.594;8.734;2023-04-06T09:51:28;12.40;88.90
34574;DHT22;20809;49.594;8.734;2023-04-06T09:54:32;12.40;87.10
34574;DHT22;20809;49.594;8.734;2023-04-06T09:58:03;12.50;86.30
34574;DHT22;20809;49.594;8.734;2023-04-06T10:01:15;12.70;88.20
34574;DHT22;20809;49.594;8.734;2023-04-06T10:04:39;12.90;87.10
34574;DHT22;20809;49.594;8.734;2023-04-06T10:07:47;13.00;81.60
34574;DHT22;20809;49.594;8.734;2023-04-06T10:11:00;13.10;79.70
34574;DHT22;20809;49.594;8.734;2023-04-06T10:14:11;13.10;81.30
34574;DHT22;20809;49.594;8.734;2023-04-06T10:17:20;13.10;78.90
34574;DHT22;20809;49.594;8.734;2023-04-06T10:27:04;13.10;78.30
34574;DHT22;20809;49.594;8.734;2023-04-06T10:30:17;13.20;78.70
34574;DHT22;20809;49.594;8.734;2023-04-06T10:33:21;13.20;78.00
34574;DHT22;20809;49.594;8.734;2023-04-06T10:36:28;13.30;77.80
34574;DHT22;20809;49.594;8.734;2023-04-06T10:39:35;13.40;79.40
34574;DHT22;20809;49.594;8.734;2023-04-06T10:42:49;13.40;78.00
34574;DHT22;20809;49.594;8.734;2023-04-06T10:46:00;13.50;77.90
34574;DHT22;20809;49.594;8.734;2023-04-06T10:49:17;13.60;78.10
34574;DHT22;20809;49.594;8.734;2023-04-06T10:52:22;13.60;78.50
34574;DHT22;20809;49.594;8.734;2023-04-06T10:55:27;13.80;78.60
34574;DHT22;20809;49.594;8.734;2023-04-06T10:58:32;13.80;77.40
34574;DHT22;20809;49.594;8.734;2023-04-06T11:01:35;13.90;76.00
34574;DHT22;20809;49.594;8.734;2023-04-06T11:04:41;14.00;77.40
34574;DHT22;20809;49.594;8.734;2023-04-06T11:07:46;14.10;77.30
34574;DHT22;20809;49.594;8.734;2023-04-06T11:11:06;14.10;76.80
34574;DHT22;20809;49.594;8.734;2023-04-06T11:14:12;14.20;75.30
34574;DHT22;20809;49.594;8.734;2023-04-06T11:17:17;14.10;74.50
34574;DHT22;20809;49.594;8.734;2023-04-06T11:20:31;13.90;74.50
34574;DHT22;20809;49.594;8.734;2023-04-06T11:23:38;13.80;73.50
34574;DHT22;20809;49.594;8.734;2023-04-06T11:26:45;14.00;75.00
34574;DHT22;20809;49.594;8.734;2023-04-06T11:29:50;14.20;75.90
34574;DHT22;20809;49.594;8.734;2023-04-06T11:33:03;14.50;74.30
34574;DHT22;20809;49.594;8.734;2023-04-06T11:36:10;14.50;69.70
34574;DHT22;20809;49.594;8.734;2023-04-06T11:39:22;14.30;72.10
34574;DHT22;20809;49.594;8.734;2023-04-06T11:42:30;14.30;70.70
34574;DHT22;20809;49.594;8.734;2023-04-06T11:45:47;14.20;71.90
34574;DHT22;20809;49.594;8.734;2023-04-06T11:48:52;14.30;71.50
34574;DHT22;20809;49.594;8.734;2023-04-06T11:52:14;14.70;71.80
34574;DHT22;20809;49.594;8.734;2023-04-06T11:55:27;15.10;69.90
34574;DHT22;20809;49.594;8.734;2023-04-06T11:58:33;15.20;67.20
34574;DHT22;20809;49.594;8.734;2023-04-06T12:01:47;15.10;66.80
34574;DHT22;20809;49.594;8.734;2023-04-06T12:04:58;15.20;67.80
34574;DHT22;20809;49.594;8.734;2023-04-06T12:08:12;15.50;65.50
34574;DHT22;20809;49.594;8.734;2023-04-06T12:11:46;15.60;65.40
34574;DHT22;20809;49.594;8.734;2023-04-06T12:14:55;15.80;64.60
34574;DHT22;20809;49.594;8.734;2023-04-06T12:18:04;16.10;67.20
34574;DHT22;20809;49.594;8.734;2023-04-06T12:21:12;16.60;65.40
34574;DHT22;20809;49.594;8.734;2023-04-06T12:24:16;16.90;62.40
34574;DHT22;20809;49.594;8.734;2023-04-06T12:27:21;17.10;62.00
34574;DHT22;20809;49.594;8.734;2023-04-06T12:30:28;17.50;61.50
34574;DHT22;20809;49.594;8.734;2023-04-06T12:33:35;17.50;61.40
34574;DHT22;20809;49.594;8.734;2023-04-06T12:36:42;17.60;58.20
34574;DHT22;20809;49.594;8.734;2023-04-06T12:39:48;17.70;59.20
34574;DHT22;20809;49.594;8.734;2023-04-06T12:42:57;17.80;59.30
34574;DHT22;20809;49.594;8.734;2023-04-06T12:46:05;18.00;58.30
34574;DHT22;20809;49.594;8.734;2023-04-06T12:49:13;17.70;58.70
34574;DHT22;20809;49.594;8.734;2023-04-06T12:52:21;17.60;58.20
34574;DHT22;20809;49.594;8.734;2023-04-06T12:55:28;17.80;58.40
34574;DHT22;20809;49.594;8.734;2023-04-06T12:58:36;18.00;56.30
34574;DHT22;20809;49.594;8.734;2023-04-06T13:01:41;18.20;58.30
34574;DHT22;20809;49.594;8.734;2023-04-06T13:04:50;18.50;56.70
34574;DHT22;20809;49.594;8.734;2023-04-06T13:08:02;18.70;56.00
34574;DHT22;20809;49.594;8.734;2023-04-06T13:11:11;18.70;56.30
34574;DHT22;20809;49.594;8.734;2023-04-06T13:14:19;18.70;55.50
34574;DHT22;20809;49.594;8.734;2023-04-06T13:17:30;18.70;52.30
34574;DHT22;20809;49.594;8.734;2023-04-06T13:20:35;18.40;52.70
34574;DHT22;20809;49.594;8.734;2023-04-06T13:23:42;18.50;52.00
34574;DHT22;20809;49.594;8.734;2023-04-06T13:26:48;18.30;51.20
34574;DHT22;20809;49.594;8.734;2023-04-06T13:29:56;17.60;47.80
34574;DHT22;20809;49.594;8.734;2023-04-06T13:33:08;17.00;51.00
34574;DHT22;20809;49.594;8.734;2023-04-06T13:36:13;16.90;53.10
34574;DHT22;20809;49.594;8.734;2023-04-06T13:39:19;16.70;52.20
34574;DHT22;20809;49.594;8.734;2023-04-06T13:42:32;16.80;54.40
34574;DHT22;20809;49.594;8.734;2023-04-06T13:45:41;17.00;54.30
34574;DHT22;20809;49.594;8.734;2023-04-06T13:48:45;17.30;53.80
34574;DHT22;20809;49.594;8.734;2023-04-06T13:51:50;17.20;54.10
34574;DHT22;20809;49.594;8.734;2023-04-06T13:54:57;17.30;54.80
34574;DHT22;20809;49.594;8.734;2023-04-06T13:58:07;17.40;54.90
34574;DHT22;20809;49.594;8.734;2023-04-06T14:01:16;17.50;54.60
34574;DHT22;20809;49.594;8.734;2023-04-06T14:04:19;17.40;55.00
34574;DHT22;20809;49.594;8.734;2023-04-06T14:07:24;17.20;54.30
34574;DHT22;20809;49.594;8.734;2023-04-06T14:10:29;17.20;54.50
34574;DHT22;20809;49.594;8.734;2023-04-06T14:13:35;16.80;54.70
34574;DHT22;20809;49.594;8.734;2023-04-06T14:16:39;16.80;54.40
34574;DHT22;20809;49.594;8.734;2023-04-06T14:19:44;16.70;54.20
34574;DHT22;20809;49.594;8.734;2023-04-06T14:22:54;16.70;54.40
34574;DHT22;20809;49.594;8.734;2023-04-06T14:26:08;16.60;55.80
34574;DHT22;20809;49.594;8.734;2023-04-06T14:29:12;16.40;54.50
34574;DHT22;20809;49.594;8.734;2023-04-06T14:32:15;16.40;55.50
34574;DHT22;20809;49.594;8.734;2023-04-06T14:35:19;16.10;55.40
34574;DHT22;20809;49.594;8.734;2023-04-06T14:38:26;16.00;54.90
34574;DHT22;20809;49.594;8.734;2023-04-06T14:41:33;15.90;54.50
34574;DHT22;20809;49.594;8.734;2023-04-06T14:44:42;15.70;54.80
34574;DHT22;20809;49.594;8.734;2023-04-06T14:47:50;15.70;55.60
34574;DHT22;20809;49.594;8.734;2023-04-06T14:51:02;15.70;56.10
34574;DHT22;20809;49.594;8.734;2023-04-06T14:54:11;15.40;54.60
34574;DHT22;20809;49.594;8.734;2023-04-06T14:57:22;15.40;54.60
34574;DHT22;20809;49.594;8.734;2023-04-06T15:00:32;15.60;54.70
34574;DHT22;20809;49.594;8.734;2023-04-06T15:03:38;15.70;57.10
34574;DHT22;20809;49.594;8.734;2023-04-06T15:06:43;15.60;56.80
34574;DHT22;20809;49.594;8.734;2023-04-06T15:09:50;15.50;57.80
34574;DHT22;20809;49.594;8.734;2023-04-06T15:12:58;15.60;57.50
34574;DHT22;20809;49.594;8.734;2023-04-06T15:16:15;15.70;57.80
34574;DHT22;20809;49.594;8.734;2023-04-06T15:19:17;15.50;57.40
34574;DHT22;20809;49.594;8.734;2023-04-06T15:22:18;15.40;57.00
34574;DHT22;20809;49.594;8.734;2023-04-06T15:25:19;15.30;57.70
34574;DHT22;20809;49.594;8.734;2023-04-06T15:28:23;15.00;57.60
34574;DHT22;20809;49.594;8.734;2023-04-06T15:31:33;14.80;57.80
34574;DHT22;20809;49.594;8.734;2023-04-06T15:34:34;14.90;57.00
34574;DHT22;20809;49.594;8.734;2023-04-06T15:37:36;14.80;56.80
34574;DHT22;20809;49.594;8.734;2023-04-06T15:40:46;14.90;57.70
34574;DHT22;20809;49.594;8.734;2023-04-06T15:47:39;15.00;58.10
34574;DHT22;20809;49.594;8.734;2023-04-06T15:50:51;14.70;56.70
34574;DHT22;20809;49.594;8.734;2023-04-06T15:54:01;14.50;58.40
34574;DHT22;20809;49.594;8.734;2023-04-06T15:57:06;14.30;59.00
34574;DHT22;20809;49.594;8.734;2023-04-06T16:00:13;14.20;58.90
34574;DHT22;20809;49.594;8.734;2023-04-06T16:03:27;14.00;57.50
34574;DHT22;20809;49.594;8.734;2023-04-06T16:06:31;13.70;58.80
34574;DHT22;20809;49.594;8.734;2023-04-06T16:09:34;13.70;60.10
34574;DHT22;20809;49.594;8.734;2023-04-06T16:12:38;13.80;61.10
34574;DHT22;20809;49.594;8.734;2023-04-06T16:15:43;13.90;60.00
34574;DHT22;20809;49.594;8.734;2023-04-06T16:18:49;13.70;60.10
34574;DHT22;20809;49.594;8.734;2023-04-06T16:21:52;13.60;59.70
34574;DHT22;20809;49.594;8.734;2023-04-06T16:24:55;13.40;59.30
34574;DHT22;20809;49.594;8.734;2023-04-06T16:28:01;13.20;59.60
34574;DHT22;20809;49.594;8.734;2023-04-06T16:31:15;13.30;61.30
34574;DHT22;20809;49.594;8.734;2023-04-06T16:34:23;13.30;60.90
34574;DHT22;20809;49.594;8.734;2023-04-06T16:37:27;13.30;59.50
34574;DHT22;20809;49.594;8.734;2023-04-06T16:40:36;13.20;61.00
34574;DHT22;20809;49.594;8.734;2023-04-06T16:43:41;13.10;59.80
34574;DHT22;20809;49.594;8.734;2023-04-06T16:46:45;13.00;60.90
34574;DHT22;20809;49.594;8.734;2023-04-06T16:49:54;12.90;61.10
34574;DHT22;20809;49.594;8.734;2023-04-06T16:53:01;12.80;60.70
34574;DHT22;20809;49.594;8.734;2023-04-06T16:56:15;12.70;61.30
34574;DHT22;20809;49.594;8.734;2023-04-06T16:59:23;12.70;61.90
34574;DHT22;20809;49.594;8.734;2023-04-06T17:02:26;12.60;62.30
34574;DHT22;20809;49.594;8.734;2023-04-06T17:05:30;12.40;63.60
34574;DHT22;20809;49.594;8.734;2023-04-06T17:08:36;12.40;64.40
34574;DHT22;20809;49.594;8.734;2023-04-06T17:11:42;12.30;62.00
34574;DHT22;20809;49.594;8.734;2023-04-06T17:14:48;12.20;63.60
34574;DHT22;20809;49.594;8.734;2023-04-06T17:17:52;12.10;64.80
34574;DHT22;20809;49.594;8.734;2023-04-06T17:21:11;12.00;65.30
34574;DHT22;20809;49.594;8.734;2023-04-06T17:24:23;12.00;66.50
34574;DHT22;20809;49.594;8.734;2023-04-06T17:27:27;11.90;68.10
34574;DHT22;20809;49.594;8.734;2023-04-06T17:30:30;11.80;68.80
34574;DHT22;20809;49.594;8.734;2023-04-06T17:33:38;11.70;69.80
34574;DHT22;20809;49.594;8.734;2023-04-06T17:36:41;11.60;70.10
34574;DHT22;20809;49.594;8.734;2023-04-06T17:39:46;11.50;72.10
34574;DHT22;20809;49.594;8.734;2023-04-06T17:42:50;11.40;72.30
34574;DHT22;20809;49.594;8.734;2023-04-06T17:45:54;11.40;73.50
34574;DHT22;20809;49.594;8.734;2023-04-06T17:48:58;11.30;74.60
34574;DHT22;20809;49.594;8.734;2023-04-06T17:52:06;11.20;74.80
34574;DHT22;20809;49.594;8.734;2023-04-06T17:55:15;11.10;75.90
34574;DHT22;20809;49.594;8.734;2023-04-06T17:58:19;11.00;77.50
34574;DHT22;20809;49.594;8.734;2023-04-06T18:01:24;10.90;78.90
34574;DHT22;20809;49.594;8.734;2023-04-06T18:04:27;10.80;79.50
34574;DHT22;20809;49.594;8.734;2023-04-06T18:07:30;10.80;80.50
34574;DHT22;20809;49.594;8.734;2023-04-06T18:10:36;10.70;80.90
34574;DHT22;20809;49.594;8.734;2023-04-06T18:13:40;10.70;80.50
34574;DHT22;20809;49.594;8.734;2023-04-06T18:16:46;10.70;81.80
34574;DHT22;20809;49.594;8.734;2023-04-06T18:19:51;10.70;82.00
34574;DHT22;20809;49.594;8.734;2023-04-06T18:22:54;10.60;83.40
34574;DHT22;20809;49.594;8.734;2023-04-06T18:26:01;10.60;84.70
34574;DHT22;20809;49.594;8.734;2023-04-06T18:29:04;10.50;85.50
34574;DHT22;20809;49.594;8.734;2023-04-06T18:32:07;10.50;87.40
34574;DHT22;20809;49.594;8.734;2023-04-06T18:35:08;10.50;88.80
34574;DHT22;20809;49.594;8.734;2023-04-06T18:38:11;10.40;90.50
34574;DHT22;20809;49.594;8.734;2023-04-06T18:41:15;10.30;91.50
34574;DHT22;20809;49.594;8.734;2023-04-06T18:44:20;10.30;92.00
34574;DHT22;20809;49.594;8.734;2023-04-06T18:47:23;10.20;93.00
34574;DHT22;20809;49.594;8.734;2023-04-06T18:50:29;10.20;94.20
34574;DHT22;20809;49.594;8.734;2023-04-06T18:53:34;10.10;95.90
34574;DHT22;20809;49.594;8.734;2023-04-06T18:56:35;10.00;97.10
34574;DHT22;20809;49.594;8.734;2023-04-06T18:59:38;9.90;98.90
34574;DHT22;20809;49.594;8.734;2023-04-06T19:02:39;9.90;99.90
34574;DHT22;20809;49.594;8.734;2023-04-06T19:05:41;9.90;99.90
34574;DHT22;20809;49.594;8.734;2023-04-06T19:08:42;9.80;99.90
34574;DHT22;20809;49.594;8.734;2023-04-06T19:11:43;9.80;99.90
34574;DHT22;20809;49.594;8.734;2023-04-06T19:14:45;9.70;99.90
34574;DHT22;20809;49.594;8.734;2023-04-06T19:17:54;9.60;99.90
34574;DHT22;20809;49.594;8.734;2023-04-06T19:21:03;9.50;99.90
34574;DHT22;20809;49.594;8.734;2023-04-06T19:24:04;9.40;99.90
34574;DHT22;20809;49.594;8.734;2023-04-06T19:27:05;9.30;99.90
34574;DHT22;20809;49.594;8.734;2023-04-06T19:30:07;9.20;99.90
34574;DHT22;20809;49.594;8.734;2023-04-06T19:33:09;9.10;99.90
34574;DHT22;20809;49.594;8.734;2023-04-06T19:36:12;9.10;99.90
34574;DHT22;20809;49.594;8.734;2023-04-06T19:39:17;9.00;99.90
34574;DHT22;20809;49.594;8.734;2023-04-06T19:42:18;9.00;99.90
34574;DHT22;20809;49.594;8.734;2023-04-06T19:45:21;8.90;99.90
34574;DHT22;20809;49.594;8.734;2023-04-06T19:48:22;8.80;99.90
34574;DHT22;20809;49.594;8.734;2023-04-06T19:51:23;8.80;99.90